sensor_id;sensor_type;location;lat;lon;timestamp;temperature;humidity
11934;DHT22;6026;48.784;9.198;2024-03-08T00:02:07;3.60;99.90
11934;DHT22;6026;48.784;9.198;2024-03-08T00:04:32;3.50;99.90
11934;DHT22;6026;48.784;9.198;2024-03-08T00:06:58;3.50;99.90
11934;DHT22;6026;48.784;9.198;2024-03-08T00:09:23;3.40;99.90
11934;DHT22;6026;48.784;9.198;2024-03-08T00:11:49;3.40;99.90
11934;DHT22;6026;48.784;9.198;2024-03-08T00:14:15;3.40;99.90
11934;DHT22;6026;48.784;9.198;2024-03-08T00:16:41;3.30;99.90
11934;DHT22;6026;48.784;9.198;2024-03-08T00:19:09;3.30;99.90
11934;DHT22;6026;48.784;9.198;2024-03-08T00:21:34;3.20;99.90
11934;DHT22;6026;48.784;9.198;2024-03-08T00:24:01;3.20;99.90
11934;DHT22;6026;48.784;9.198;2024-03-08T00:26:26;3.10;99.90
11934;DHT22;6026;48.784;9.198;2024-03-08T00:28:52;3.10;99.90
11934;DHT22;6026;48.784;9.198;2024-03-08T00:31:19;3.10;99.90
11934;DHT22;6026;48.784;9.198;2024-03-08T00:33:45;3.00;99.90
11934;DHT22;6026;48.784;9.198;2024-03-08T00:36:11;3.00;99.90
11934;DHT22;6026;48.784;9.198;2024-03-08T00:38:37;3.00;99.90
11934;DHT22;6026;48.784;9.198;2024-03-08T00:41:02;2.90;99.90
11934;DHT22;6026;48.784;9.198;2024-03-08T00:43:28;2.90;99.90
11934;DHT22;6026;48.784;9.198;2024-03-08T00:45:55;2.90;99.90
11934;DHT22;6026;48.784;9.198;2024-03-08T00:48:21;2.80;99.90
11934;DHT22;6026;48.784;9.198;2024-03-08T00:50:46;2.80;99.90
11934;DHT22;6026;48.784;9.198;2024-03-08T00:53:12;2.80;99.90
11934;DHT22;6026;48.784;9.198;2024-03-08T00:55:38;2.70;99.90
11934;DHT22;6026;48.784;9.198;2024-03-08T00:58:04;2.70;99.90
11934;DHT22;6026;48.784;9.198;2024-03-08T01:00:30;2.70;99.90
11934;DHT22;6026;48.784;9.198;2024-03-08T01:02:55;2.70;99.90
11934;DHT22;6026;48.784;9.198;2024-03-08T01:05:21;2.60;99.90
11934;DHT22;6026;48.784;9.198;2024-03-08T01:07:49;2.60;99.90
11934;DHT22;6026;48.784;9.198;2024-03-08T01:10:15;2.60;99.90
11934;DHT22;6026;48.784;9.198;2024-03-08T01:12:41;2.60;99.90
11934;DHT22;6026;48.784;9.198;2024-03-08T01:15:09;2.50;99.90
11934;DHT22;6026;48.784;9.198;2024-03-08T01:17:35;2.50;99.90
11934;DHT22;6026;48.784;9.198;2024-03-08T01:20:01;2.50;99.90
11934;DHT22;6026;48.784;9.198;2024-03-08T01:22:27;2.50;99.90
11934;DHT22;6026;48.784;9.198;2024-03-08T01:24:55;2.40;99.90
11934;DHT22;6026;48.784;9.198;2024-03-08T01:27:20;2.40;99.90
11934;DHT22;6026;48.784;9.198;2024-03-08T01:29:46;2.40;99.90
11934;DHT22;6026;48.784;9.198;2024-03-08T01:32:12;2.30;99.90
11934;DHT22;6026;48.784;9.198;2024-03-08T01:34:37;2.30;99.90
11934;DHT22;6026;48.784;9.198;2024-03-08T01:37:03;2.30;99.90
11934;DHT22;6026;48.784;9.198;2024-03-08T01:39:28;2.30;99.90
11934;DHT22;6026;48.784;9.198;2024-03-08T01:41:54;2.20;99.90
11934;DHT22;6026;48.784;9.198;2024-03-08T01:44:20;2.20;99.90
11934;DHT22;6026;48.784;9.198;2024-03-08T01:46:46;2.20;99.90
11934;DHT22;6026;48.784;9.198;2024-03-08T01:49:13;2.10;99.90
11934;DHT22;6026;48.784;9.198;2024-03-08T01:51:40;2.10;99.90
11934;DHT22;6026;48.784;9.198;2024-03-08T01:54:07;2.10;99.90
11934;DHT22;6026;48.784;9.198;2024-03-08T01:56:36;2.10;99.90
11934;DHT22;6026;48.784;9.198;2024-03-08T01:59:02;2.00;99.90
11934;DHT22;6026;48.784;9.198;2024-03-08T02:01:28;2.00;99.90
11934;DHT22;6026;48.784;9.198;2024-03-08T02:03:54;2.00;99.90
11934;DHT22;6026;48.784;9.198;2024-03-08T02:06:19;2.00;99.90
11934;DHT22;6026;48.784;9.198;2024-03-08T02:08:46;2.00;99.90
11934;DHT22;6026;48.784;9.198;2024-03-08T02:11:12;1.90;99.90
11934;DHT22;6026;48.784;9.198;2024-03-08T02:13:38;1.90;99.90
11934;DHT22;6026;48.784;9.198;2024-03-08T02:16:04;1.90;99.90
11934;DHT22;6026;48.784;9.198;2024-03-08T02:18:30;1.90;99.90
11934;DHT22;6026;48.784;9.198;2024-03-08T02:20:58;1.90;99.90
11934;DHT22;6026;48.784;9.198;2024-03-08T02:23:25;1.90;99.90
11934;DHT22;6026;48.784;9.198;2024-03-08T02:25:51;1.90;99.90
11934;DHT22;6026;48.784;9.198;2024-03-08T02:28:17;1.80;99.90
11934;DHT22;6026;48.784;9.198;2024-03-08T02:30:46;1.80;99.90
11934;DHT22;6026;48.784;9.198;2024-03-08T02:33:14;1.80;99.90
11934;DHT22;6026;48.784;9.198;2024-03-08T02:35:42;1.80;99.90
11934;DHT22;6026;48.784;9.198;2024-03-08T02:38:14;1.80;99.90
11934;DHT22;6026;48.784;9.198;2024-03-08T02:40:44;1.70;99.90
11934;DHT22;6026;48.784;9.198;2024-03-08T02:43:11;1.80;99.90
11934;DHT22;6026;48.784;9.198;2024-03-08T02:45:37;1.70;99.90
11934;DHT22;6026;48.784;9.198;2024-03-08T02:48:03;1.70;99.90
11934;DHT22;6026;48.784;9.198;2024-03-08T02:50:29;1.70;99.90
11934;DHT22;6026;48.784;9.198;2024-03-08T02:52:54;1.70;99.90
11934;DHT22;6026;48.784;9.198;2024-03-08T02:55:20;1.70;99.90
11934;DHT22;6026;48.784;9.198;2024-03-08T02:57:46;1.60;99.90
11934;DHT22;6026;48.784;9.198;2024-03-08T03:00:14;1.60;99.90
11934;DHT22;6026;48.784;9.198;2024-03-08T03:02:41;1.60;99.90
11934;DHT22;6026;48.784;9.198;2024-03-08T03:05:08;1.60;99.90
11934;DHT22;6026;48.784;9.198;2024-03-08T03:07:35;1.50;99.90
11934;DHT22;6026;48.784;9.198;2024-03-08T03:10:01;1.50;99.90
11934;DHT22;6026;48.784;9.198;2024-03-08T03:12:28;1.50;99.90
11934;DHT22;6026;48.784;9.198;2024-03-08T03:14:53;1.50;99.90
11934;DHT22;6026;48.784;9.198;2024-03-08T03:17:19;1.50;99.90
11934;DHT22;6026;48.784;9.198;2024-03-08T03:19:45;1.40;99.90
11934;DHT22;6026;48.784;9.198;2024-03-08T03:22:12;1.50;99.90
11934;DHT22;6026;48.784;9.198;2024-03-08T03:24:38;1.40;99.90
11934;DHT22;6026;48.784;9.198;2024-03-08T03:27:04;1.40;99.90
11934;DHT22;6026;48.784;9.198;2024-03-08T03:29:39;1.40;99.90
11934;DHT22;6026;48.784;9.198;2024-03-08T03:32:08;1.40;99.90
11934;DHT22;6026;48.784;9.198;2024-03-08T03:34:34;1.40;99.90
11934;DHT22;6026;48.784;9.198;2024-03-08T03:37:02;1.40;99.90
11934;DHT22;6026;48.784;9.198;2024-03-08T03:39:28;1.30;99.90
11934;DHT22;6026;48.784;9.198;2024-03-08T03:41:57;1.40;99.90
11934;DHT22;6026;48.784;9.198;2024-03-08T03:44:23;1.40;99.90
11934;DHT22;6026;48.784;9.198;2024-03-08T03:46:49;1.40;99.90
11934;DHT22;6026;48.784;9.198;2024-03-08T03:49:16;1.40;99.90
11934;DHT22;6026;48.784;9.198;2024-03-08T03:51:42;1.50;99.90
11934;DHT22;6026;48.784;9.198;2024-03-08T03:54:10;1.50;99.90
11934;DHT22;6026;48.784;9.198;2024-03-08T03:56:35;1.60;99.90
11934;DHT22;6026;48.784;9.198;2024-03-08T03:59:01;1.60;99.90
11934;DHT22;6026;48.784;9.198;2024-03-08T04:01:27;1.60;99.90
11934;DHT22;6026;48.784;9.198;2024-03-08T04:03:52;1.60;99.90
11934;DHT22;6026;48.784;9.198;2024-03-08T04:06:18;1.60;99.90
11934;DHT22;6026;48.784;9.198;2024-03-08T04:08:43;1.60;99.90
11934;DHT22;6026;48.784;9.198;2024-03-08T04:11:09;1.60;99.90
11934;DHT22;6026;48.784;9.198;2024-03-08T04:13:34;1.60;99.90
11934;DHT22;6026;48.784;9.198;2024-03-08T04:16:02;1.60;99.90
11934;DHT22;6026;48.784;9.198;2024-03-08T04:18:27;1.50;99.90
11934;DHT22;6026;48.784;9.198;2024-03-08T04:20:53;1.60;99.90
11934;DHT22;6026;48.784;9.198;2024-03-08T04:23:19;1.60;99.90
11934;DHT22;6026;48.784;9.198;2024-03-08T04:25:45;1.60;99.90
11934;DHT22;6026;48.784;9.198;2024-03-08T04:28:10;1.60;99.90
11934;DHT22;6026;48.784;9.198;2024-03-08T04:30:40;1.60;99.90
11934;DHT22;6026;48.784;9.198;2024-03-08T04:33:06;1.60;99.90
11934;DHT22;6026;48.784;9.198;2024-03-08T04:35:34;1.60;99.90
11934;DHT22;6026;48.784;9.198;2024-03-08T04:37:59;1.70;99.90
11934;DHT22;6026;48.784;9.198;2024-03-08T04:40:25;1.60;99.90
11934;DHT22;6026;48.784;9.198;2024-03-08T04:42:51;1.60;99.90
11934;DHT22;6026;48.784;9.198;2024-03-08T04:45:17;1.60;99.90
11934;DHT22;6026;48.784;9.198;2024-03-08T04:47:43;1.60;99.90
11934;DHT22;6026;48.784;9.198;2024-03-08T04:50:09;1.60;99.90
11934;DHT22;6026;48.784;9.198;2024-03-08T04:52:35;1.60;99.90
11934;DHT22;6026;48.784;9.198;2024-03-08T04:55:04;1.60;99.90
11934;DHT22;6026;48.784;9.198;2024-03-08T04:57:30;1.60;99.90
11934;DHT22;6026;48.784;9.198;2024-03-08T04:59:56;1.60;99.90
11934;DHT22;6026;48.784;9.198;2024-03-08T05:02:24;1.60;99.90
11934;DHT22;6026;48.784;9.198;2024-03-08T05:04:50;1.60;99.90
11934;DHT22;6026;48.784;9.198;2024-03-08T05:07:16;1.50;99.90
11934;DHT22;6026;48.784;9.198;2024-03-08T05:09:41;1.50;99.90
11934;DHT22;6026;48.784;9.198;2024-03-08T05:12:07;1.50;99.90
11934;DHT22;6026;48.784;9.198;2024-03-08T05:14:33;1.50;99.90
11934;DHT22;6026;48.784;9.198;2024-03-08T05:17:00;1.50;99.90
11934;DHT22;6026;48.784;9.198;2024-03-08T05:19:26;1.40;99.90
11934;DHT22;6026;48.784;9.198;2024-03-08T05:21:51;1.50;99.90
11934;DHT22;6026;48.784;9.198;2024-03-08T05:24:18;1.40;99.90
11934;DHT22;6026;48.784;9.198;2024-03-08T05:26:44;1.40;99.90
11934;DHT22;6026;48.784;9.198;2024-03-08T05:29:10;1.40;99.90
11934;DHT22;6026;48.784;9.198;2024-03-08T05:31:49;1.40;99.90
11934;DHT22;6026;48.784;9.198;2024-03-08T05:34:18;1.30;99.90
11934;DHT22;6026;48.784;9.198;2024-03-08T05:36:45;1.30;99.90
11934;DHT22;6026;48.784;9.198;2024-03-08T05:39:15;1.40;99.90
11934;DHT22;6026;48.784;9.198;2024-03-08T05:41:41;1.30;99.90
11934;DHT22;6026;48.784;9.198;2024-03-08T05:44:08;1.30;99.90
11934;DHT22;6026;48.784;9.198;2024-03-08T05:46:34;1.30;99.90
11934;DHT22;6026;48.784;9.198;2024-03-08T05:49:01;1.30;99.90
11934;DHT22;6026;48.784;9.198;2024-03-08T05:51:31;1.30;99.90
11934;DHT22;6026;48.784;9.198;2024-03-08T05:53:57;1.30;99.90
11934;DHT22;6026;48.784;9.198;2024-03-08T05:56:23;1.30;99.90
11934;DHT22;6026;48.784;9.198;2024-03-08T05:58:49;1.30;99.90
11934;DHT22;6026;48.784;9.198;2024-03-08T06:01:15;1.30;99.90
11934;DHT22;6026;48.784;9.198;2024-03-08T06:03:41;1.20;99.90
11934;DHT22;6026;48.784;9.198;2024-03-08T06:06:12;1.30;99.90
11934;DHT22;6026;48.784;9.198;2024-03-08T06:08:37;1.30;99.90
11934;DHT22;6026;48.784;9.198;2024-03-08T06:11:03;1.30;99.90
11934;DHT22;6026;48.784;9.198;2024-03-08T06:13:30;1.30;99.90
11934;DHT22;6026;48.784;9.198;2024-03-08T06:15:56;1.40;99.90
11934;DHT22;6026;48.784;9.198;2024-03-08T06:18:22;1.40;99.90
11934;DHT22;6026;48.784;9.198;2024-03-08T06:20:47;1.50;99.90
11934;DHT22;6026;48.784;9.198;2024-03-08T06:23:13;1.50;99.90
11934;DHT22;6026;48.784;9.198;2024-03-08T06:25:45;1.50;99.90
11934;DHT22;6026;48.784;9.198;2024-03-08T06:28:11;1.60;99.90
11934;DHT22;6026;48.784;9.198;2024-03-08T06:30:37;1.60;99.90
11934;DHT22;6026;48.784;9.198;2024-03-08T06:33:02;1.80;99.90
11934;DHT22;6026;48.784;9.198;2024-03-08T06:35:28;1.80;99.90
11934;DHT22;6026;48.784;9.198;2024-03-08T06:37:53;1.90;99.90
11934;DHT22;6026;48.784;9.198;2024-03-08T06:40:19;2.00;99.90
11934;DHT22;6026;48.784;9.198;2024-03-08T06:42:44;2.00;99.90
11934;DHT22;6026;48.784;9.198;2024-03-08T06:45:11;2.10;99.90
11934;DHT22;6026;48.784;9.198;2024-03-08T06:47:37;2.10;99.90
11934;DHT22;6026;48.784;9.198;2024-03-08T06:50:03;2.10;99.90
11934;DHT22;6026;48.784;9.198;2024-03-08T06:52:29;2.20;99.90
11934;DHT22;6026;48.784;9.198;2024-03-08T06:54:55;2.20;99.90
11934;DHT22;6026;48.784;9.198;2024-03-08T06:57:22;2.30;99.90
11934;DHT22;6026;48.784;9.198;2024-03-08T06:59:48;2.30;99.90
11934;DHT22;6026;48.784;9.198;2024-03-08T07:02:14;2.40;99.90
11934;DHT22;6026;48.784;9.198;2024-03-08T07:04:40;2.50;99.90
11934;DHT22;6026;48.784;9.198;2024-03-08T07:07:05;2.50;99.90
11934;DHT22;6026;48.784;9.198;2024-03-08T07:09:37;2.60;99.90
11934;DHT22;6026;48.784;9.198;2024-03-08T07:12:03;2.70;99.90
11934;DHT22;6026;48.784;9.198;2024-03-08T07:14:29;2.70;99.90
11934;DHT22;6026;48.784;9.198;2024-03-08T07:16:56;2.80;99.90
11934;DHT22;6026;48.784;9.198;2024-03-08T07:19:21;2.80;99.90
11934;DHT22;6026;48.784;9.198;2024-03-08T07:21:47;2.90;99.90
11934;DHT22;6026;48.784;9.198;2024-03-08T07:24:13;2.90;99.90
11934;DHT22;6026;48.784;9.198;2024-03-08T07:26:57;3.00;99.90
11934;DHT22;6026;48.784;9.198;2024-03-08T07:29:23;3.00;99.90
11934;DHT22;6026;48.784;9.198;2024-03-08T07:31:48;3.10;99.90
11934;DHT22;6026;48.784;9.198;2024-03-08T07:34:27;3.10;99.90
11934;DHT22;6026;48.784;9.198;2024-03-08T07:36:55;3.20;99.90
11934;DHT22;6026;48.784;9.198;2024-03-08T07:39:21;3.20;99.90
11934;DHT22;6026;48.784;9.198;2024-03-08T07:41:49;3.30;99.90
11934;DHT22;6026;48.784;9.198;2024-03-08T07:44:14;3.40;99.90
11934;DHT22;6026;48.784;9.198;2024-03-08T07:46:40;3.40;99.90
11934;DHT22;6026;48.784;9.198;2024-03-08T07:49:06;3.40;99.90
11934;DHT22;6026;48.784;9.198;2024-03-08T07:51:35;3.50;99.90
11934;DHT22;6026;48.784;9.198;2024-03-08T07:54:01;3.50;99.90
11934;DHT22;6026;48.784;9.198;2024-03-08T07:56:26;3.40;99.90
11934;DHT22;6026;48.784;9.198;2024-03-08T07:58:52;3.50;99.90
11934;DHT22;6026;48.784;9.198;2024-03-08T08:01:18;3.60;99.90
11934;DHT22;6026;48.784;9.198;2024-03-08T08:03:45;3.60;99.90
11934;DHT22;6026;48.784;9.198;2024-03-08T08:06:11;3.60;99.90
11934;DHT22;6026;48.784;9.198;2024-03-08T08:08:42;3.60;99.90
11934;DHT22;6026;48.784;9.198;2024-03-08T08:11:08;3.60;99.90
11934;DHT22;6026;48.784;9.198;2024-03-08T08:13:34;3.60;99.90
11934;DHT22;6026;48.784;9.198;2024-03-08T08:16:02;3.60;99.90
11934;DHT22;6026;48.784;9.198;2024-03-08T08:18:28;3.70;99.90
11934;DHT22;6026;48.784;9.198;2024-03-08T08:20:55;3.70;99.90
11934;DHT22;6026;48.784;9.198;2024-03-08T08:23:21;3.70;99.90
11934;DHT22;6026;48.784;9.198;2024-03-08T08:25:47;3.70;99.90
11934;DHT22;6026;48.784;9.198;2024-03-08T08:28:16;3.70;99.90
11934;DHT22;6026;48.784;9.198;2024-03-08T08:30:43;3.60;99.90
11934;DHT22;6026;48.784;9.198;2024-03-08T08:33:09;3.60;99.90
11934;DHT22;6026;48.784;9.198;2024-03-08T08:35:36;3.60;99.90
11934;DHT22;6026;48.784;9.198;2024-03-08T08:38:03;3.60;99.90
11934;DHT22;6026;48.784;9.198;2024-03-08T08:40:29;3.70;99.90
11934;DHT22;6026;48.784;9.198;2024-03-08T08:42:56;3.70;99.90
11934;DHT22;6026;48.784;9.198;2024-03-08T08:45:25;3.70;99.90
11934;DHT22;6026;48.784;9.198;2024-03-08T08:47:51;3.80;99.90
11934;DHT22;6026;48.784;9.198;2024-03-08T08:50:17;3.80;99.90
11934;DHT22;6026;48.784;9.198;2024-03-08T08:52:48;3.80;99.90
11934;DHT22;6026;48.784;9.198;2024-03-08T08:55:14;3.90;99.90
11934;DHT22;6026;48.784;9.198;2024-03-08T08:57:41;4.00;99.90
11934;DHT22;6026;48.784;9.198;2024-03-08T09:00:07;4.10;99.90
11934;DHT22;6026;48.784;9.198;2024-03-08T09:02:36;4.10;99.90
11934;DHT22;6026;48.784;9.198;2024-03-08T09:05:03;4.10;99.90
11934;DHT22;6026;48.784;9.198;2024-03-08T09:07:29;4.30;99.90
11934;DHT22;6026;48.784;9.198;2024-03-08T09:09:54;4.30;99.90
11934;DHT22;6026;48.784;9.198;2024-03-08T09:12:23;4.30;99.90
11934;DHT22;6026;48.784;9.198;2024-03-08T09:14:49;4.40;99.90
11934;DHT22;6026;48.784;9.198;2024-03-08T09:17:15;4.40;99.90
11934;DHT22;6026;48.784;9.198;2024-03-08T09:19:46;4.30;99.90
11934;DHT22;6026;48.784;9.198;2024-03-08T09:22:13;4.40;99.90
11934;DHT22;6026;48.784;9.198;2024-03-08T09:24:38;4.30;99.90
11934;DHT22;6026;48.784;9.198;2024-03-08T09:27:04;4.40;99.90
11934;DHT22;6026;48.784;9.198;2024-03-08T09:29:29;4.30;99.90
11934;DHT22;6026;48.784;9.198;2024-03-08T09:31:55;4.40;99.90
11934;DHT22;6026;48.784;9.198;2024-03-08T09:34:21;4.50;99.90
11934;DHT22;6026;48.784;9.198;2024-03-08T09:36:46;4.50;99.90
11934;DHT22;6026;48.784;9.198;2024-03-08T09:39:12;4.60;99.90
11934;DHT22;6026;48.784;9.198;2024-03-08T09:41:43;4.60;99.90
11934;DHT22;6026;48.784;9.198;2024-03-08T09:44:09;4.60;99.90
11934;DHT22;6026;48.784;9.198;2024-03-08T09:46:35;4.50;99.90
11934;DHT22;6026;48.784;9.198;2024-03-08T09:49:00;4.60;99.90
11934;DHT22;6026;48.784;9.198;2024-03-08T09:51:33;4.60;99.90
11934;DHT22;6026;48.784;9.198;2024-03-08T09:54:00;4.60;99.90
11934;DHT22;6026;48.784;9.198;2024-03-08T09:56:26;4.50;99.90
11934;DHT22;6026;48.784;9.198;2024-03-08T09:58:53;4.60;99.90
11934;DHT22;6026;48.784;9.198;2024-03-08T10:01:33;4.60;99.90
11934;DHT22;6026;48.784;9.198;2024-03-08T10:03:59;4.60;99.90
11934;DHT22;6026;48.784;9.198;2024-03-08T10:06:24;4.70;99.90
11934;DHT22;6026;48.784;9.198;2024-03-08T10:08:51;4.80;99.90
11934;DHT22;6026;48.784;9.198;2024-03-08T10:11:20;4.90;99.90
11934;DHT22;6026;48.784;9.198;2024-03-08T10:13:48;5.00;99.90
11934;DHT22;6026;48.784;9.198;2024-03-08T10:16:13;5.10;99.90
11934;DHT22;6026;48.784;9.198;2024-03-08T10:18:39;5.00;99.90
11934;DHT22;6026;48.784;9.198;2024-03-08T10:21:08;5.00;99.90
11934;DHT22;6026;48.784;9.198;2024-03-08T10:23:35;5.10;99.90
11934;DHT22;6026;48.784;9.198;2024-03-08T10:26:11;5.10;99.90
11934;DHT22;6026;48.784;9.198;2024-03-08T10:28:40;5.20;99.90
11934;DHT22;6026;48.784;9.198;2024-03-08T10:31:06;5.30;99.90
11934;DHT22;6026;48.784;9.198;2024-03-08T10:33:32;5.50;99.90
11934;DHT22;6026;48.784;9.198;2024-03-08T10:36:15;5.60;99.90
11934;DHT22;6026;48.784;9.198;2024-03-08T10:38:44;5.70;99.90
11934;DHT22;6026;48.784;9.198;2024-03-08T10:41:12;5.80;99.90
11934;DHT22;6026;48.784;9.198;2024-03-08T10:43:52;5.80;99.90
11934;DHT22;6026;48.784;9.198;2024-03-08T10:46:45;6.00;99.90
11934;DHT22;6026;48.784;9.198;2024-03-08T10:49:17;5.90;99.90
11934;DHT22;6026;48.784;9.198;2024-03-08T10:51:44;5.90;99.90
11934;DHT22;6026;48.784;9.198;2024-03-08T10:54:10;6.10;99.90
11934;DHT22;6026;48.784;9.198;2024-03-08T10:56:37;6.00;99.90
11934;DHT22;6026;48.784;9.198;2024-03-08T10:59:03;6.20;99.90
11934;DHT22;6026;48.784;9.198;2024-03-08T11:01:30;6.30;99.90
11934;DHT22;6026;48.784;9.198;2024-03-08T11:03:56;6.30;99.90
11934;DHT22;6026;48.784;9.198;2024-03-08T11:06:41;6.50;99.90
11934;DHT22;6026;48.784;9.198;2024-03-08T11:14:49;6.70;99.90
11934;DHT22;6026;48.784;9.198;2024-03-08T11:17:16;6.90;99.90
11934;DHT22;6026;48.784;9.198;2024-03-08T11:19:48;7.20;99.90
11934;DHT22;6026;48.784;9.198;2024-03-08T11:22:21;7.30;99.90
11934;DHT22;6026;48.784;9.198;2024-03-08T11:24:49;7.40;99.90
11934;DHT22;6026;48.784;9.198;2024-03-08T11:27:15;7.60;99.90
11934;DHT22;6026;48.784;9.198;2024-03-08T11:29:41;7.60;99.90
11934;DHT22;6026;48.784;9.198;2024-03-08T11:32:16;7.80;99.90
11934;DHT22;6026;48.784;9.198;2024-03-08T11:34:46;7.80;99.90
11934;DHT22;6026;48.784;9.198;2024-03-08T11:37:22;7.90;99.90
11934;DHT22;6026;48.784;9.198;2024-03-08T11:39:53;7.80;99.90
11934;DHT22;6026;48.784;9.198;2024-03-08T11:42:24;8.10;99.90
11934;DHT22;6026;48.784;9.198;2024-03-08T11:44:52;8.10;99.90
11934;DHT22;6026;48.784;9.198;2024-03-08T11:47:18;8.50;99.90
11934;DHT22;6026;48.784;9.198;2024-03-08T11:49:45;9.20;99.90
11934;DHT22;6026;48.784;9.198;2024-03-08T11:52:13;9.70;99.90
11934;DHT22;6026;48.784;9.198;2024-03-08T11:54:47;10.20;99.90
11934;DHT22;6026;48.784;9.198;2024-03-08T11:57:17;10.70;99.90
11934;DHT22;6026;48.784;9.198;2024-03-08T11:59:50;10.70;99.90
11934;DHT22;6026;48.784;9.198;2024-03-08T12:02:15;10.90;99.90
11934;DHT22;6026;48.784;9.198;2024-03-08T12:04:41;11.40;99.90
11934;DHT22;6026;48.784;9.198;2024-03-08T12:07:09;11.60;99.90
11934;DHT22;6026;48.784;9.198;2024-03-08T12:09:37;11.90;99.90
11934;DHT22;6026;48.784;9.198;2024-03-08T12:12:03;11.90;99.90
11934;DHT22;6026;48.784;9.198;2024-03-08T12:14:30;11.80;99.90
11934;DHT22;6026;48.784;9.198;2024-03-08T12:16:57;11.30;99.90
11934;DHT22;6026;48.784;9.198;2024-03-08T12:19:23;11.30;99.90
11934;DHT22;6026;48.784;9.198;2024-03-08T12:21:48;11.00;99.90
11934;DHT22;6026;48.784;9.198;2024-03-08T12:24:16;11.30;99.90
11934;DHT22;6026;48.784;9.198;2024-03-08T12:26:45;11.80;99.90
11934;DHT22;6026;48.784;9.198;2024-03-08T12:29:26;12.00;99.90
11934;DHT22;6026;48.784;9.198;2024-03-08T12:31:59;11.70;99.90
11934;DHT22;6026;48.784;9.198;2024-03-08T12:34:27;11.10;99.90
11934;DHT22;6026;48.784;9.198;2024-03-08T12:36:54;11.20;99.90
11934;DHT22;6026;48.784;9.198;2024-03-08T12:39:21;10.60;99.90
11934;DHT22;6026;48.784;9.198;2024-03-08T12:41:53;11.10;99.90
11934;DHT22;6026;48.784;9.198;2024-03-08T12:44:19;11.60;99.90
11934;DHT22;6026;48.784;9.198;2024-03-08T12:46:47;11.30;99.90
11934;DHT22;6026;48.784;9.198;2024-03-08T12:49:13;11.00;99.90
11934;DHT22;6026;48.784;9.198;2024-03-08T12:51:43;10.90;99.90
11934;DHT22;6026;48.784;9.198;2024-03-08T12:54:09;11.20;99.90
11934;DHT22;6026;48.784;9.198;2024-03-08T12:56:36;11.60;99.90
11934;DHT22;6026;48.784;9.198;2024-03-08T12:59:03;11.20;99.90
11934;DHT22;6026;48.784;9.198;2024-03-08T13:01:30;11.80;99.90
11934;DHT22;6026;48.784;9.198;2024-03-08T13:03:57;12.10;99.90
11934;DHT22;6026;48.784;9.198;2024-03-08T13:06:24;12.00;99.90
11934;DHT22;6026;48.784;9.198;2024-03-08T13:08:54;11.30;99.90
11934;DHT22;6026;48.784;9.198;2024-03-08T13:11:21;11.40;99.90
11934;DHT22;6026;48.784;9.198;2024-03-08T13:13:47;11.90;99.90
11934;DHT22;6026;48.784;9.198;2024-03-08T13:16:13;12.00;99.90
11934;DHT22;6026;48.784;9.198;2024-03-08T13:18:43;12.30;99.90
11934;DHT22;6026;48.784;9.198;2024-03-08T13:21:11;12.30;99.90
11934;DHT22;6026;48.784;9.198;2024-03-08T13:23:40;12.40;99.90
11934;DHT22;6026;48.784;9.198;2024-03-08T13:26:10;12.40;99.90
11934;DHT22;6026;48.784;9.198;2024-03-08T13:28:43;12.00;99.90
11934;DHT22;6026;48.784;9.198;2024-03-08T13:31:11;12.60;99.90
11934;DHT22;6026;48.784;9.198;2024-03-08T13:33:37;12.60;99.90
11934;DHT22;6026;48.784;9.198;2024-03-08T13:36:05;12.70;99.90
11934;DHT22;6026;48.784;9.198;2024-03-08T13:38:32;11.70;99.90
11934;DHT22;6026;48.784;9.198;2024-03-08T13:41:04;11.70;99.90
11934;DHT22;6026;48.784;9.198;2024-03-08T13:43:30;12.00;99.90
11934;DHT22;6026;48.784;9.198;2024-03-08T13:45:59;12.10;99.90
11934;DHT22;6026;48.784;9.198;2024-03-08T13:48:25;11.70;99.90
11934;DHT22;6026;48.784;9.198;2024-03-08T13:50:50;11.80;99.90
11934;DHT22;6026;48.784;9.198;2024-03-08T13:53:17;11.50;99.90
11934;DHT22;6026;48.784;9.198;2024-03-08T13:55:42;12.00;99.90
11934;DHT22;6026;48.784;9.198;2024-03-08T13:58:08;11.80;99.90
11934;DHT22;6026;48.784;9.198;2024-03-08T14:00:35;11.60;99.90
11934;DHT22;6026;48.784;9.198;2024-03-08T14:03:01;11.50;99.90
11934;DHT22;6026;48.784;9.198;2024-03-08T14:05:31;11.30;99.90
11934;DHT22;6026;48.784;9.198;2024-03-08T14:08:04;11.50;99.90
11934;DHT22;6026;48.784;9.198;2024-03-08T14:10:29;11.30;99.90
11934;DHT22;6026;48.784;9.198;2024-03-08T14:12:57;11.10;99.90
11934;DHT22;6026;48.784;9.198;2024-03-08T14:15:22;11.10;99.90
11934;DHT22;6026;48.784;9.198;2024-03-08T14:17:55;11.50;99.90
11934;DHT22;6026;48.784;9.198;2024-03-08T14:20:21;11.90;99.90
11934;DHT22;6026;48.784;9.198;2024-03-08T14:22:53;11.80;99.90
11934;DHT22;6026;48.784;9.198;2024-03-08T14:25:23;11.50;99.90
11934;DHT22;6026;48.784;9.198;2024-03-08T14:27:52;11.40;99.90
11934;DHT22;6026;48.784;9.198;2024-03-08T14:30:32;11.00;99.90
11934;DHT22;6026;48.784;9.198;2024-03-08T14:33:02;11.30;99.90
11934;DHT22;6026;48.784;9.198;2024-03-08T14:35:28;11.60;99.90
11934;DHT22;6026;48.784;9.198;2024-03-08T14:37:56;11.80;99.90
11934;DHT22;6026;48.784;9.198;2024-03-08T14:40:25;11.20;99.90
11934;DHT22;6026;48.784;9.198;2024-03-08T14:42:51;11.60;99.90
11934;DHT22;6026;48.784;9.198;2024-03-08T14:45:17;11.60;99.90
11934;DHT22;6026;48.784;9.198;2024-03-08T14:47:49;11.30;99.90
11934;DHT22;6026;48.784;9.198;2024-03-08T14:50:22;11.20;99.90
11934;DHT22;6026;48.784;9.198;2024-03-08T14:52:51;11.60;99.90
11934;DHT22;6026;48.784;9.198;2024-03-08T14:55:18;11.70;99.90
11934;DHT22;6026;48.784;9.198;2024-03-08T14:57:47;11.80;99.90
11934;DHT22;6026;48.784;9.198;2024-03-08T15:00:16;11.90;99.90
11934;DHT22;6026;48.784;9.198;2024-03-08T15:02:43;12.20;99.90
11934;DHT22;6026;48.784;9.198;2024-03-08T15:05:10;11.60;99.90
11934;DHT22;6026;48.784;9.198;2024-03-08T15:07:40;11.50;99.90
11934;DHT22;6026;48.784;9.198;2024-03-08T15:10:09;11.80;99.90
11934;DHT22;6026;48.784;9.198;2024-03-08T15:12:41;11.70;99.90
11934;DHT22;6026;48.784;9.198;2024-03-08T15:15:12;11.90;99.90
11934;DHT22;6026;48.784;9.198;2024-03-08T15:17:39;12.00;99.90
11934;DHT22;6026;48.784;9.198;2024-03-08T15:20:08;12.20;99.90
11934;DHT22;6026;48.784;9.198;2024-03-08T15:22:50;12.00;99.90
11934;DHT22;6026;48.784;9.198;2024-03-08T15:25:18;11.90;99.90
11934;DHT22;6026;48.784;9.198;2024-03-08T15:27:51;11.70;99.90
11934;DHT22;6026;48.784;9.198;2024-03-08T15:30:17;11.80;99.90
11934;DHT22;6026;48.784;9.198;2024-03-08T15:32:48;11.60;99.90
11934;DHT22;6026;48.784;9.198;2024-03-08T15:35:16;11.50;99.90
11934;DHT22;6026;48.784;9.198;2024-03-08T15:37:44;11.70;99.90
11934;DHT22;6026;48.784;9.198;2024-03-08T15:40:14;11.60;99.90
11934;DHT22;6026;48.784;9.198;2024-03-08T15:43:07;11.80;99.90
11934;DHT22;6026;48.784;9.198;2024-03-08T15:45:33;11.70;99.90
11934;DHT22;6026;48.784;9.198;2024-03-08T15:48:02;11.80;99.90
11934;DHT22;6026;48.784;9.198;2024-03-08T15:50:30;11.70;99.90
11934;DHT22;6026;48.784;9.198;2024-03-08T15:52:57;11.70;99.90
11934;DHT22;6026;48.784;9.198;2024-03-08T15:55:22;11.70;99.90
11934;DHT22;6026;48.784;9.198;2024-03-08T15:57:51;11.80;99.90
11934;DHT22;6026;48.784;9.198;2024-03-08T16:00:19;11.90;99.90
11934;DHT22;6026;48.784;9.198;2024-03-08T16:03:11;11.80;99.90
11934;DHT22;6026;48.784;9.198;2024-03-08T16:05:46;11.70;99.90